Time;durP1;ratioP1;P1;durP2;ratioP2;P2;SDS_P1;SDS_P2;PMS_P1;PMS_P2;Temp;Humidity;BMP_temperature;BMP_pressure;BME280_temperature;BME280_humidity;BME280_pressure;Samples;Min_cycle;Max_cycle;Signal;HPM_P1;HPM_P2
2021/10/06 00:00:16;;;;;;;;;;;15.40;99.90;;;;;;2082935;28;705;-55
2021/10/06 00:01:36;;;;;;;;;;;15.40;99.90;;;;;;2089493;28;1043;-58
2021/10/06 00:02:55;;;;;;;;;;;15.40;99.90;;;;;;2074180;28;1011;-56
2021/10/06 00:04:14;;;;;;;;;;;15.40;99.90;;;;;;2090870;28;1903;-55
2021/10/06 00:05:33;;;;;;;;;;;15.40;99.90;;;;;;2091113;28;737;-57
2021/10/06 00:06:52;;;;;;;;;;;15.40;99.90;;;;;;2090892;28;698;-55
2021/10/06 00:08:13;;;;;;;;;;;15.40;99.90;;;;;;2091157;28;744;-55
2021/10/06 00:09:32;;;;;;;;;;;15.40;99.90;;;;;;2091187;28;867;-53
2021/10/06 00:10:51;;;;;;;;;;;15.40;99.90;;;;;;2091149;28;718;-54
2021/10/06 00:12:10;;;;;;;;;;;15.40;99.90;;;;;;2091031;28;719;-54
2021/10/06 00:13:29;;;;;;;;;;;15.40;99.90;;;;;;2091117;28;721;-54
2021/10/06 00:14:48;;;;;;;;;;;15.40;99.90;;;;;;2091208;28;697;-54
2021/10/06 00:16:10;;;;;;;;;;;15.40;99.90;;;;;;2090370;28;956;-56
2021/10/06 00:17:29;;;;;;;;;;;15.40;99.90;;;;;;2091109;28;706;-53
2021/10/06 00:18:48;;;;;;;;;;;15.40;99.90;;;;;;2090301;28;1360;-53
2021/10/06 00:20:08;;;;;;;;;;;15.40;99.90;;;;;;2087189;28;736;-53
2021/10/06 00:21:28;;;;;;;;;;;15.40;99.90;;;;;;2087469;28;720;-55
2021/10/06 00:22:47;;;;;;;;;;;15.40;99.90;;;;;;2090736;28;735;-53
2021/10/06 00:24:06;;;;;;;;;;;15.40;99.90;;;;;;2090494;28;1910;-53
2021/10/06 00:25:25;;;;;;;;;;;15.40;99.90;;;;;;2090892;28;704;-55
2021/10/06 00:26:45;;;;;;;;;;;15.40;99.90;;;;;;2090247;28;756;-55
2021/10/06 00:28:04;;;;;;;;;;;15.40;99.90;;;;;;2090380;28;717;-55
2021/10/06 00:29:23;;;;;;;;;;;15.40;99.90;;;;;;2090687;28;1373;-51
2021/10/06 00:30:42;;;;;;;;;;;15.40;99.90;;;;;;2089774;28;706;-55
2021/10/06 00:32:02;;;;;;;;;;;15.40;99.90;;;;;;2077856;28;874;-56
2021/10/06 00:33:21;;;;;;;;;;;15.40;99.90;;;;;;2086944;28;1139;-52
2021/10/06 00:34:40;;;;;;;;;;;15.40;99.90;;;;;;2085583;28;691;-58
2021/10/06 00:36:00;;;;;;;;;;;15.40;99.90;;;;;;2081990;28;714;-52
2021/10/06 00:37:19;;;;;;;;;;;15.40;99.90;;;;;;2078621;28;750;-56
2021/10/06 00:38:38;;;;;;;;;;;15.40;99.90;;;;;;2082208;28;1467;-56
2021/10/06 00:39:58;;;;;;;;;;;15.40;99.90;;;;;;2081029;28;1437;-53
2021/10/06 00:41:17;;;;;;;;;;;15.40;99.90;;;;;;2082487;28;824;-52
2021/10/06 00:42:37;;;;;;;;;;;15.40;99.90;;;;;;2082610;28;697;-54
2021/10/06 00:43:56;;;;;;;;;;;15.40;99.90;;;;;;2081874;28;1899;-55
2021/10/06 00:45:15;;;;;;;;;;;15.40;99.90;;;;;;2080849;28;780;-51
2021/10/06 00:46:35;;;;;;;;;;;15.40;99.90;;;;;;2081777;28;744;-58
2021/10/06 00:47:54;;;;;;;;;;;15.40;99.90;;;;;;2082180;28;1396;-51
2021/10/06 00:49:13;;;;;;;;;;;15.40;99.90;;;;;;2082670;28;1342;-54
2021/10/06 00:50:32;;;;;;;;;;;15.40;99.90;;;;;;2082276;28;723;-55
2021/10/06 00:51:52;;;;;;;;;;;15.40;99.90;;;;;;2082451;28;775;-51
2021/10/06 00:53:11;;;;;;;;;;;15.40;99.90;;;;;;2081856;28;1264;-53
2021/10/06 00:54:30;;;;;;;;;;;15.40;99.90;;;;;;2073843;28;1558;-54
2021/10/06 00:55:49;;;;;;;;;;;15.40;99.90;;;;;;2074143;28;749;-53
2021/10/06 00:57:09;;;;;;;;;;;15.40;99.90;;;;;;2073539;28;730;-53
2021/10/06 00:58:27;;;;;;;;;;;15.40;99.90;;;;;;2062475;28;1354;-53
2021/10/06 00:59:47;;;;;;;;;;;15.40;99.90;;;;;;2075412;28;737;-55
2021/10/06 01:01:06;;;;;;;;;;;15.40;99.90;;;;;;2084180;28;862;-53
2021/10/06 01:02:25;;;;;;;;;;;15.40;99.90;;;;;;2085668;28;1161;-59
2021/10/06 01:03:44;;;;;;;;;;;15.40;99.90;;;;;;2088885;28;1973;-53
2021/10/06 01:05:04;;;;;;;;;;;15.40;99.90;;;;;;2090856;28;713;-54
2021/10/06 01:06:23;;;;;;;;;;;15.30;99.90;;;;;;2090107;28;727;-54
2021/10/06 01:07:42;;;;;;;;;;;15.30;99.90;;;;;;2090640;28;779;-53
2021/10/06 01:09:02;;;;;;;;;;;15.40;99.90;;;;;;2090048;28;1448;-52
2021/10/06 01:10:21;;;;;;;;;;;15.30;99.90;;;;;;2086684;28;956;-54
2021/10/06 01:11:40;;;;;;;;;;;15.40;99.90;;;;;;2090432;28;768;-52
2021/10/06 01:12:59;;;;;;;;;;;15.30;99.90;;;;;;2081950;28;731;-53
2021/10/06 01:14:19;;;;;;;;;;;15.30;99.90;;;;;;2086934;28;785;-52
2021/10/06 01:15:38;;;;;;;;;;;15.30;99.90;;;;;;2090032;28;762;-53
2021/10/06 01:16:57;;;;;;;;;;;15.40;99.90;;;;;;2089890;28;741;-61
2021/10/06 01:18:16;;;;;;;;;;;15.40;99.90;;;;;;2086543;28;748;-52
2021/10/06 01:19:35;;;;;;;;;;;15.30;99.90;;;;;;2081719;28;952;-54
2021/10/06 01:20:55;;;;;;;;;;;15.30;99.90;;;;;;2075167;28;929;-52
2021/10/06 01:22:14;;;;;;;;;;;15.30;99.90;;;;;;2081596;28;1024;-52
2021/10/06 01:23:34;;;;;;;;;;;15.30;99.90;;;;;;2078525;28;760;-54
2021/10/06 01:24:53;;;;;;;;;;;15.30;99.90;;;;;;2082084;28;729;-53
2021/10/06 01:26:18;;;;;;;;;;;15.30;99.90;;;;;;2081596;28;721;-53
2021/10/06 01:27:38;;;;;;;;;;;15.30;99.90;;;;;;2089952;28;733;-56
2021/10/06 01:28:57;;;;;;;;;;;15.30;99.90;;;;;;2081668;28;1403;-51
2021/10/06 01:30:16;;;;;;;;;;;15.30;99.90;;;;;;2082038;28;723;-54
2021/10/06 01:31:35;;;;;;;;;;;15.30;99.90;;;;;;2078399;28;1039;-52
2021/10/06 01:32:54;;;;;;;;;;;15.30;99.90;;;;;;2068976;28;953;-53
2021/10/06 01:34:15;;;;;;;;;;;15.30;99.90;;;;;;2090335;28;721;-55
2021/10/06 01:35:34;;;;;;;;;;;15.30;99.90;;;;;;2089893;28;771;-54
2021/10/06 01:36:53;;;;;;;;;;;15.30;99.90;;;;;;2089451;28;715;-52
2021/10/06 01:38:13;;;;;;;;;;;15.30;99.90;;;;;;2090611;28;742;-56
2021/10/06 01:39:32;;;;;;;;;;;15.30;99.90;;;;;;2090504;28;729;-56
2021/10/06 01:40:51;;;;;;;;;;;15.30;99.90;;;;;;2081594;28;761;-51
2021/10/06 01:42:10;;;;;;;;;;;15.30;99.90;;;;;;2086917;28;725;-54
2021/10/06 01:43:29;;;;;;;;;;;15.30;99.90;;;;;;2090451;28;777;-52
2021/10/06 01:44:48;;;;;;;;;;;15.30;99.90;;;;;;2089655;28;731;-52
2021/10/06 01:46:07;;;;;;;;;;;15.30;99.90;;;;;;2088754;28;1387;-54
2021/10/06 01:47:27;;;;;;;;;;;15.30;99.90;;;;;;2080827;28;1384;-55
2021/10/06 01:48:46;;;;;;;;;;;15.30;99.90;;;;;;2081583;28;1376;-54
2021/10/06 01:50:05;;;;;;;;;;;15.30;99.90;;;;;;2082128;28;705;-52
2021/10/06 01:51:24;;;;;;;;;;;15.30;99.90;;;;;;2081433;28;776;-52
2021/10/06 01:52:44;;;;;;;;;;;15.30;99.90;;;;;;2081878;28;716;-54
2021/10/06 01:54:04;;;;;;;;;;;15.30;99.90;;;;;;2081850;28;760;-53
2021/10/06 01:55:24;;;;;;;;;;;15.30;99.90;;;;;;2081371;28;832;-53
2021/10/06 01:56:43;;;;;;;;;;;15.30;99.90;;;;;;2077522;28;905;-51
2021/10/06 01:58:08;;;;;;;;;;;15.30;99.90;;;;;;2078279;28;819;-53
2021/10/06 01:59:27;;;;;;;;;;;15.30;99.90;;;;;;2086925;28;1361;-51
2021/10/06 02:00:47;;;;;;;;;;;15.30;99.90;;;;;;2085053;28;820;-52
2021/10/06 02:02:06;;;;;;;;;;;15.30;99.90;;;;;;2078275;28;846;-53
2021/10/06 02:03:25;;;;;;;;;;;15.30;99.90;;;;;;2084349;28;999;-55
2021/10/06 02:04:44;;;;;;;;;;;15.30;99.90;;;;;;2073024;28;743;-52
2021/10/06 02:06:04;;;;;;;;;;;15.30;99.90;;;;;;2074666;28;746;-60
2021/10/06 02:07:23;;;;;;;;;;;15.30;99.90;;;;;;2077999;28;735;-54
2021/10/06 02:08:42;;;;;;;;;;;15.30;99.90;;;;;;2081675;28;1473;-54
2021/10/06 02:10:03;;;;;;;;;;;15.30;99.90;;;;;;2080725;28;1393;-51
2021/10/06 02:11:22;;;;;;;;;;;15.30;99.90;;;;;;2081250;28;1205;-56
2021/10/06 02:12:41;;;;;;;;;;;15.30;99.90;;;;;;2078311;28;1144;-51
2021/10/06 02:14:01;;;;;;;;;;;15.30;99.90;;;;;;2081278;28;792;-58
2021/10/06 02:15:20;;;;;;;;;;;15.30;99.90;;;;;;2081474;28;710;-51
2021/10/06 02:16:39;;;;;;;;;;;15.30;99.90;;;;;;2080682;28;932;-53
2021/10/06 02:17:59;;;;;;;;;;;15.30;99.90;;;;;;2078064;28;759;-52
2021/10/06 02:19:18;;;;;;;;;;;15.30;99.90;;;;;;2081619;28;1377;-55
2021/10/06 02:20:37;;;;;;;;;;;15.30;99.90;;;;;;2080860;28;754;-54
2021/10/06 02:21:56;;;;;;;;;;;15.30;99.90;;;;;;2080875;28;748;-53
2021/10/06 02:23:16;;;;;;;;;;;15.30;99.90;;;;;;2081686;28;720;-53
2021/10/06 02:24:35;;;;;;;;;;;15.30;99.90;;;;;;2080567;28;1973;-54
2021/10/06 02:25:54;;;;;;;;;;;15.30;99.90;;;;;;2081444;28;757;-53
2021/10/06 02:27:13;;;;;;;;;;;15.30;99.90;;;;;;2081262;28;691;-54
2021/10/06 02:28:33;;;;;;;;;;;15.30;99.90;;;;;;2081402;28;1404;-55
2021/10/06 02:29:52;;;;;;;;;;;15.30;99.90;;;;;;2081901;28;699;-52
2021/10/06 02:31:11;;;;;;;;;;;15.30;99.90;;;;;;2080562;28;1031;-58
2021/10/06 02:32:31;;;;;;;;;;;15.30;99.90;;;;;;2081035;28;1108;-56
2021/10/06 02:33:50;;;;;;;;;;;15.30;99.90;;;;;;2089308;28;873;-52
2021/10/06 02:35:09;;;;;;;;;;;15.30;99.90;;;;;;2082855;28;1318;-56
2021/10/06 02:36:28;;;;;;;;;;;15.30;99.90;;;;;;2077281;28;1495;-56
2021/10/06 02:37:48;;;;;;;;;;;15.30;99.90;;;;;;2086106;28;1278;-58
2021/10/06 02:39:07;;;;;;;;;;;15.30;99.90;;;;;;2084024;28;1486;-54
2021/10/06 02:40:26;;;;;;;;;;;15.30;99.90;;;;;;2089990;28;759;-52
2021/10/06 02:41:45;;;;;;;;;;;15.30;99.90;;;;;;2083225;28;1448;-58
2021/10/06 02:43:04;;;;;;;;;;;15.30;99.90;;;;;;2078086;28;1141;-53
2021/10/06 02:44:24;;;;;;;;;;;15.30;99.90;;;;;;2083696;28;1898;-55
2021/10/06 02:45:43;;;;;;;;;;;15.30;99.90;;;;;;2079143;28;1458;-58
2021/10/06 02:47:02;;;;;;;;;;;15.30;99.90;;;;;;2072496;28;730;-58
2021/10/06 02:48:23;;;;;;;;;;;15.30;99.90;;;;;;2073492;28;1893;-51
2021/10/06 02:49:42;;;;;;;;;;;15.30;99.90;;;;;;2077357;28;1349;-57
2021/10/06 02:51:02;;;;;;;;;;;15.30;99.90;;;;;;2087836;28;1035;-55
2021/10/06 02:52:21;;;;;;;;;;;15.30;99.90;;;;;;2080293;28;1227;-58
2021/10/06 02:53:40;;;;;;;;;;;15.30;99.90;;;;;;2088334;28;1035;-53
2021/10/06 02:54:59;;;;;;;;;;;15.30;99.90;;;;;;2076401;28;994;-53
2021/10/06 02:56:19;;;;;;;;;;;15.30;99.90;;;;;;2089148;28;1042;-53
2021/10/06 02:57:38;;;;;;;;;;;15.30;99.90;;;;;;2089652;28;754;-51
2021/10/06 02:58:57;;;;;;;;;;;15.30;99.90;;;;;;2089749;28;1369;-54
2021/10/06 03:00:16;;;;;;;;;;;15.30;99.90;;;;;;2088960;28;737;-56
2021/10/06 03:01:35;;;;;;;;;;;15.30;99.90;;;;;;2087687;28;1170;-55
2021/10/06 03:02:54;;;;;;;;;;;15.30;99.90;;;;;;2075092;28;1156;-55
2021/10/06 03:04:13;;;;;;;;;;;15.30;99.90;;;;;;2089533;28;1910;-57
2021/10/06 03:05:32;;;;;;;;;;;15.30;99.90;;;;;;2089863;28;723;-55
2021/10/06 03:06:52;;;;;;;;;;;15.30;99.90;;;;;;2088785;28;746;-55
2021/10/06 03:08:11;;;;;;;;;;;15.30;99.90;;;;;;2089395;28;1010;-58
2021/10/06 03:09:30;;;;;;;;;;;15.30;99.90;;;;;;2089765;28;733;-54
2021/10/06 03:10:49;;;;;;;;;;;15.30;99.90;;;;;;2089579;28;730;-54
2021/10/06 03:12:09;;;;;;;;;;;15.30;99.90;;;;;;2088749;28;724;-55
2021/10/06 03:13:28;;;;;;;;;;;15.20;99.90;;;;;;2089594;28;693;-54
2021/10/06 03:14:47;;;;;;;;;;;15.30;99.90;;;;;;2089088;28;717;-55
2021/10/06 03:16:07;;;;;;;;;;;15.20;99.90;;;;;;2085133;28;980;-56
2021/10/06 03:17:26;;;;;;;;;;;15.20;99.90;;;;;;2089492;28;740;-56
2021/10/06 03:18:45;;;;;;;;;;;15.20;99.90;;;;;;2089227;28;1300;-53
2021/10/06 03:20:05;;;;;;;;;;;15.20;99.90;;;;;;2089778;28;737;-55
2021/10/06 03:21:24;;;;;;;;;;;15.20;99.90;;;;;;2089202;28;739;-55
2021/10/06 03:22:44;;;;;;;;;;;15.20;99.90;;;;;;2089249;28;776;-54
2021/10/06 03:24:03;;;;;;;;;;;15.20;99.90;;;;;;2088881;28;1910;-54
2021/10/06 03:25:23;;;;;;;;;;;15.20;99.90;;;;;;2081740;28;1044;-56
2021/10/06 03:26:42;;;;;;;;;;;15.30;99.90;;;;;;2078514;28;1075;-53
2021/10/06 03:28:01;;;;;;;;;;;15.20;99.90;;;;;;2087171;28;1048;-51
2021/10/06 03:29:21;;;;;;;;;;;15.20;99.90;;;;;;2085472;28;1490;-52
2021/10/06 03:30:40;;;;;;;;;;;15.20;99.90;;;;;;2088678;28;913;-51
2021/10/06 03:32:00;;;;;;;;;;;15.20;99.90;;;;;;2075662;28;922;-51
2021/10/06 03:33:19;;;;;;;;;;;15.20;99.90;;;;;;2084816;28;1095;-52
2021/10/06 03:34:38;;;;;;;;;;;15.20;99.90;;;;;;2081127;28;713;-54
2021/10/06 03:35:57;;;;;;;;;;;15.20;99.90;;;;;;2081207;28;725;-52
2021/10/06 03:37:16;;;;;;;;;;;15.20;99.90;;;;;;2081256;28;709;-53
2021/10/06 03:38:35;;;;;;;;;;;15.20;99.90;;;;;;2081433;28;1367;-52
2021/10/06 03:39:54;;;;;;;;;;;15.20;99.90;;;;;;2081178;28;831;-52
2021/10/06 03:41:14;;;;;;;;;;;15.20;99.90;;;;;;2080713;28;789;-51
2021/10/06 03:42:33;;;;;;;;;;;15.20;99.90;;;;;;2077655;28;736;-51
2021/10/06 03:43:52;;;;;;;;;;;15.20;99.90;;;;;;2080789;28;1898;-55
2021/10/06 03:45:12;;;;;;;;;;;15.20;99.90;;;;;;2081158;28;729;-52
2021/10/06 03:46:31;;;;;;;;;;;15.20;99.90;;;;;;2080817;28;699;-52
2021/10/06 03:47:50;;;;;;;;;;;15.20;99.90;;;;;;2079855;28;729;-51
2021/10/06 03:49:09;;;;;;;;;;;15.20;99.90;;;;;;2080725;28;1474;-55
2021/10/06 03:50:29;;;;;;;;;;;15.20;99.90;;;;;;2073377;28;686;-52
2021/10/06 03:51:48;;;;;;;;;;;15.20;99.90;;;;;;2073243;28;710;-55
2021/10/06 03:53:07;;;;;;;;;;;15.20;99.90;;;;;;2072421;28;728;-52
2021/10/06 03:54:26;;;;;;;;;;;15.20;99.90;;;;;;2080841;28;1065;-52
2021/10/06 03:55:45;;;;;;;;;;;15.20;99.90;;;;;;2075209;28;825;-52
2021/10/06 03:57:05;;;;;;;;;;;15.20;99.90;;;;;;2073050;28;734;-50
2021/10/06 03:58:24;;;;;;;;;;;15.20;99.90;;;;;;2073549;28;695;-53
2021/10/06 03:59:43;;;;;;;;;;;15.20;99.90;;;;;;2073271;28;731;-52
2021/10/06 04:01:02;;;;;;;;;;;15.20;99.90;;;;;;2078949;28;1083;-52
2021/10/06 04:02:21;;;;;;;;;;;15.20;99.90;;;;;;2084884;28;1031;-51
2021/10/06 04:03:40;;;;;;;;;;;15.20;99.90;;;;;;2087550;28;1187;-53
2021/10/06 04:05:00;;;;;;;;;;;15.20;99.90;;;;;;2089498;28;701;-52
2021/10/06 04:06:19;;;;;;;;;;;15.20;99.90;;;;;;2088224;28;760;-51
2021/10/06 04:07:38;;;;;;;;;;;15.20;99.90;;;;;;2089238;28;776;-51
2021/10/06 04:08:57;;;;;;;;;;;15.20;99.90;;;;;;2089558;28;1439;-51
2021/10/06 04:10:16;;;;;;;;;;;15.20;99.90;;;;;;2089591;28;713;-52
2021/10/06 04:11:36;;;;;;;;;;;15.20;99.90;;;;;;2089698;28;768;-52
2021/10/06 04:12:55;;;;;;;;;;;15.20;99.90;;;;;;2089554;28;713;-54
2021/10/06 04:14:14;;;;;;;;;;;15.20;99.90;;;;;;2088806;28;793;-51
2021/10/06 04:15:33;;;;;;;;;;;15.20;99.90;;;;;;2089250;28;713;-52
2021/10/06 04:16:52;;;;;;;;;;;15.20;99.90;;;;;;2087867;28;762;-54
2021/10/06 04:18:11;;;;;;;;;;;15.20;99.90;;;;;;2089338;28;718;-52
2021/10/06 04:19:30;;;;;;;;;;;15.20;99.90;;;;;;2089494;28;751;-52
2021/10/06 04:20:49;;;;;;;;;;;15.20;99.90;;;;;;2089599;28;798;-53
2021/10/06 04:22:09;;;;;;;;;;;15.20;99.90;;;;;;2089606;28;774;-51
2021/10/06 04:23:28;;;;;;;;;;;15.20;99.90;;;;;;2088617;28;791;-52
2021/10/06 04:24:47;;;;;;;;;;;15.20;99.90;;;;;;2089340;28;725;-52
2021/10/06 04:26:07;;;;;;;;;;;15.20;99.90;;;;;;2089019;28;720;-51
2021/10/06 04:27:26;;;;;;;;;;;15.20;99.90;;;;;;2089424;28;994;-51
2021/10/06 04:28:45;;;;;;;;;;;15.20;99.90;;;;;;2089419;28;1501;-52
2021/10/06 04:30:05;;;;;;;;;;;15.20;99.90;;;;;;2088771;28;851;-51
2021/10/06 04:31:24;;;;;;;;;;;15.20;99.90;;;;;;2067535;28;985;-52
2021/10/06 04:32:43;;;;;;;;;;;15.20;99.90;;;;;;2070312;28;1227;-54
2021/10/06 04:34:02;;;;;;;;;;;15.20;99.90;;;;;;2080142;28;736;-53
2021/10/06 04:35:21;;;;;;;;;;;15.20;99.90;;;;;;2076089;28;744;-51
2021/10/06 04:36:42;;;;;;;;;;;15.20;99.90;;;;;;2072012;28;800;-51
2021/10/06 04:38:01;;;;;;;;;;;15.20;99.90;;;;;;2084946;28;1192;-54
2021/10/06 04:39:20;;;;;;;;;;;15.20;99.90;;;;;;2077237;28;1384;-52
2021/10/06 04:40:40;;;;;;;;;;;15.20;99.90;;;;;;2074292;28;704;-51
2021/10/06 04:41:59;;;;;;;;;;;15.20;99.90;;;;;;2074601;28;714;-51
2021/10/06 04:43:19;;;;;;;;;;;15.20;99.90;;;;;;2074570;28;721;-51
2021/10/06 04:44:38;;;;;;;;;;;15.20;99.90;;;;;;2086394;28;1914;-52
2021/10/06 04:45:57;;;;;;;;;;;15.20;99.90;;;;;;2077256;28;780;-55
2021/10/06 04:47:16;;;;;;;;;;;15.20;99.90;;;;;;2076343;28;1465;-51
2021/10/06 04:48:35;;;;;;;;;;;15.20;99.90;;;;;;2073869;28;1329;-52
2021/10/06 04:49:55;;;;;;;;;;;15.20;99.90;;;;;;2074459;28;726;-51
2021/10/06 04:51:14;;;;;;;;;;;15.20;99.90;;;;;;2074308;28;781;-52
2021/10/06 04:52:33;;;;;;;;;;;15.20;99.90;;;;;;2073560;28;826;-53
2021/10/06 04:53:52;;;;;;;;;;;15.20;99.90;;;;;;2070627;28;704;-51
2021/10/06 04:55:11;;;;;;;;;;;15.20;99.90;;;;;;2073872;28;721;-54
2021/10/06 04:56:31;;;;;;;;;;;15.20;99.90;;;;;;2073689;28;736;-55
2021/10/06 04:57:50;;;;;;;;;;;15.20;99.90;;;;;;2074415;28;711;-51
2021/10/06 04:59:09;;;;;;;;;;;15.20;99.90;;;;;;2074093;28;1460;-52
2021/10/06 05:00:28;;;;;;;;;;;15.20;99.90;;;;;;2065537;28;761;-53
2021/10/06 05:01:47;;;;;;;;;;;15.20;99.90;;;;;;2068786;28;874;-54
2021/10/06 05:03:11;;;;;;;;;;;15.20;99.90;;;;;;2084658;28;1229;-52
2021/10/06 05:04:30;;;;;;;;;;;15.20;99.90;;;;;;2082289;28;1987;-54
2021/10/06 05:05:49;;;;;;;;;;;15.20;99.90;;;;;;2081872;28;719;-51
2021/10/06 05:07:08;;;;;;;;;;;15.20;99.90;;;;;;2081863;28;1027;-53
2021/10/06 05:08:27;;;;;;;;;;;15.20;99.90;;;;;;2082558;28;704;-52
2021/10/06 05:09:47;;;;;;;;;;;15.20;99.90;;;;;;2082471;28;721;-51
2021/10/06 05:11:06;;;;;;;;;;;15.20;99.90;;;;;;2082274;28;722;-51
2021/10/06 05:12:25;;;;;;;;;;;15.20;99.90;;;;;;2081678;28;706;-52
2021/10/06 05:13:44;;;;;;;;;;;15.20;99.90;;;;;;2080897;28;733;-53
2021/10/06 05:15:04;;;;;;;;;;;15.20;99.90;;;;;;2082378;28;702;-54
2021/10/06 05:16:23;;;;;;;;;;;15.20;99.90;;;;;;2081753;28;964;-50
2021/10/06 05:17:42;;;;;;;;;;;15.20;99.90;;;;;;2081305;28;753;-53
2021/10/06 05:19:01;;;;;;;;;;;15.20;99.90;;;;;;2080750;28;1451;-56
2021/10/06 05:20:20;;;;;;;;;;;15.20;99.90;;;;;;2082392;28;730;-55
2021/10/06 05:21:40;;;;;;;;;;;15.20;99.90;;;;;;2082294;28;712;-51
2021/10/06 05:22:59;;;;;;;;;;;15.20;99.90;;;;;;2089922;28;724;-51
2021/10/06 05:24:18;;;;;;;;;;;15.20;99.90;;;;;;2085004;28;1918;-51
2021/10/06 05:25:37;;;;;;;;;;;15.20;99.90;;;;;;2082124;28;712;-51
2021/10/06 05:26:56;;;;;;;;;;;15.20;99.90;;;;;;2081170;28;750;-50
2021/10/06 05:28:16;;;;;;;;;;;15.20;99.90;;;;;;2082169;28;692;-52
2021/10/06 05:29:35;;;;;;;;;;;15.20;99.90;;;;;;2082290;28;697;-51
2021/10/06 05:30:55;;;;;;;;;;;15.20;99.90;;;;;;2083060;28;968;-51
2021/10/06 05:32:14;;;;;;;;;;;15.20;99.90;;;;;;2086828;28;984;-52
2021/10/06 05:33:34;;;;;;;;;;;15.20;99.90;;;;;;2088604;28;1171;-52
2021/10/06 05:34:53;;;;;;;;;;;15.20;99.90;;;;;;2089965;28;787;-52
2021/10/06 05:36:12;;;;;;;;;;;15.20;99.90;;;;;;2089600;28;717;-51
2021/10/06 05:37:31;;;;;;;;;;;15.20;99.90;;;;;;2090469;28;718;-51
2021/10/06 05:38:51;;;;;;;;;;;15.20;99.90;;;;;;2090198;28;1312;-52
2021/10/06 05:40:10;;;;;;;;;;;15.20;99.90;;;;;;2090326;28;695;-52
2021/10/06 05:41:29;;;;;;;;;;;15.20;99.90;;;;;;2090357;28;718;-53
2021/10/06 05:42:48;;;;;;;;;;;15.20;99.90;;;;;;2081674;28;750;-51
2021/10/06 05:44:07;;;;;;;;;;;15.20;99.90;;;;;;2086649;28;1902;-52
2021/10/06 05:45:26;;;;;;;;;;;15.20;99.90;;;;;;2089832;28;764;-52
2021/10/06 05:46:45;;;;;;;;;;;15.20;99.90;;;;;;2084055;28;1486;-55
2021/10/06 05:48:04;;;;;;;;;;;15.20;99.90;;;;;;2082322;28;721;-53
2021/10/06 05:49:23;;;;;;;;;;;15.20;99.90;;;;;;2081720;28;1411;-51
2021/10/06 05:50:43;;;;;;;;;;;15.20;99.90;;;;;;2081739;28;927;-51
2021/10/06 05:52:02;;;;;;;;;;;15.20;99.90;;;;;;2082398;28;702;-52
2021/10/06 05:53:21;;;;;;;;;;;15.10;99.90;;;;;;2082182;28;741;-52
2021/10/06 05:54:40;;;;;;;;;;;15.20;99.90;;;;;;2082076;28;735;-52
2021/10/06 05:56:00;;;;;;;;;;;15.10;99.90;;;;;;2082117;28;725;-51
2021/10/06 05:57:19;;;;;;;;;;;15.20;99.90;;;;;;2081824;28;732;-53
2021/10/06 05:58:38;;;;;;;;;;;15.20;99.90;;;;;;2081382;28;1349;-52
2021/10/06 05:59:57;;;;;;;;;;;15.20;99.90;;;;;;2081726;28;758;-52
2021/10/06 06:01:17;;;;;;;;;;;15.10;99.90;;;;;;2085832;28;1193;-51
2021/10/06 06:02:40;;;;;;;;;;;15.10;99.90;;;;;;2083825;28;1160;-52
2021/10/06 06:03:59;;;;;;;;;;;15.20;99.90;;;;;;2089830;28;1902;-52
2021/10/06 06:05:19;;;;;;;;;;;15.20;99.90;;;;;;2090263;28;727;-51
2021/10/06 06:06:42;;;;;;;;;;;15.20;99.90;;;;;;2089728;28;751;-51
2021/10/06 06:08:00;;;;;;;;;;;15.10;99.90;;;;;;2090225;28;705;-51
2021/10/06 06:09:21;;;;;;;;;;;15.20;99.90;;;;;;2090252;28;1484;-51
2021/10/06 06:10:40;;;;;;;;;;;15.20;99.90;;;;;;2089666;28;759;-51
2021/10/06 06:12:00;;;;;;;;;;;15.20;99.90;;;;;;2089977;28;715;-51
2021/10/06 06:13:20;;;;;;;;;;;15.20;99.90;;;;;;2088862;28;802;-53
2021/10/06 06:14:40;;;;;;;;;;;15.20;99.90;;;;;;2090259;28;732;-52
2021/10/06 06:15:59;;;;;;;;;;;15.20;99.90;;;;;;2089482;28;796;-52
2021/10/06 06:17:18;;;;;;;;;;;15.20;99.90;;;;;;2089907;28;704;-53
2021/10/06 06:18:38;;;;;;;;;;;15.20;99.90;;;;;;2090331;28;1458;-51
2021/10/06 06:19:57;;;;;;;;;;;15.20;99.90;;;;;;2090191;28;806;-52
2021/10/06 06:21:16;;;;;;;;;;;15.20;99.90;;;;;;2090233;28;710;-52
2021/10/06 06:22:35;;;;;;;;;;;15.20;99.90;;;;;;2090273;28;713;-52
2021/10/06 06:23:54;;;;;;;;;;;15.20;99.90;;;;;;2081261;28;1906;-51
2021/10/06 06:25:14;;;;;;;;;;;15.20;99.90;;;;;;2086930;28;781;-53
2021/10/06 06:26:33;;;;;;;;;;;15.20;99.90;;;;;;2089460;28;738;-53
2021/10/06 06:27:52;;;;;;;;;;;15.20;99.90;;;;;;2089970;28;762;-51
2021/10/06 06:29:11;;;;;;;;;;;15.20;99.90;;;;;;2090200;28;1340;-51
2021/10/06 06:30:30;;;;;;;;;;;15.20;99.90;;;;;;2090262;28;762;-51
2021/10/06 06:31:49;;;;;;;;;;;15.20;99.90;;;;;;2081208;28;869;-51
2021/10/06 06:33:08;;;;;;;;;;;15.20;99.90;;;;;;2081433;28;1008;-51
2021/10/06 06:34:28;;;;;;;;;;;15.20;99.90;;;;;;2089793;28;775;-51
2021/10/06 06:35:47;;;;;;;;;;;15.20;99.90;;;;;;2089405;28;792;-52
2021/10/06 06:37:06;;;;;;;;;;;15.10;99.90;;;;;;2089522;28;738;-54
2021/10/06 06:38:26;;;;;;;;;;;15.20;99.90;;;;;;2089788;28;769;-51
2021/10/06 06:39:45;;;;;;;;;;;15.20;99.90;;;;;;2081157;28;738;-52
2021/10/06 06:41:04;;;;;;;;;;;15.20;99.90;;;;;;2078556;28;1426;-51
2021/10/06 06:42:24;;;;;;;;;;;15.10;99.90;;;;;;2068507;28;1466;-51
2021/10/06 06:43:43;;;;;;;;;;;15.20;99.90;;;;;;2072996;28;753;-52
2021/10/06 06:45:03;;;;;;;;;;;15.20;99.90;;;;;;2073565;28;735;-52
2021/10/06 06:46:22;;;;;;;;;;;15.20;99.90;;;;;;2072997;28;737;-54
2021/10/06 06:47:41;;;;;;;;;;;15.20;99.90;;;;;;2073553;28;718;-52
2021/10/06 06:49:01;;;;;;;;;;;15.20;99.90;;;;;;2073345;28;1332;-52
2021/10/06 06:50:20;;;;;;;;;;;15.20;99.90;;;;;;2073658;28;730;-52
2021/10/06 06:51:39;;;;;;;;;;;15.10;99.90;;;;;;2073678;28;729;-52
2021/10/06 06:52:58;;;;;;;;;;;15.10;99.90;;;;;;2073520;28;719;-52
2021/10/06 06:54:17;;;;;;;;;;;15.10;99.90;;;;;;2073411;28;745;-52
2021/10/06 06:55:37;;;;;;;;;;;15.20;99.90;;;;;;2073661;28;749;-52
2021/10/06 06:56:56;;;;;;;;;;;15.10;99.90;;;;;;2072963;28;803;-52
2021/10/06 06:58:15;;;;;;;;;;;15.20;99.90;;;;;;2073552;28;826;-51
2021/10/06 06:59:35;;;;;;;;;;;15.10;99.90;;;;;;2073623;28;732;-52
2021/10/06 07:00:54;;;;;;;;;;;15.10;99.90;;;;;;2074070;28;943;-52
2021/10/06 07:02:13;;;;;;;;;;;15.20;99.90;;;;;;2085143;28;1452;-51
2021/10/06 07:03:32;;;;;;;;;;;15.10;99.90;;;;;;2087629;28;1163;-54
2021/10/06 07:04:51;;;;;;;;;;;15.10;99.90;;;;;;2089299;28;1983;-51
2021/10/06 07:06:10;;;;;;;;;;;15.10;99.90;;;;;;2089350;28;707;-52
2021/10/06 07:07:29;;;;;;;;;;;15.10;99.90;;;;;;2089771;28;762;-51
2021/10/06 07:08:49;;;;;;;;;;;15.10;99.90;;;;;;2089666;28;1355;-52
2021/10/06 07:10:08;;;;;;;;;;;15.10;99.90;;;;;;2089053;28;751;-53
2021/10/06 07:11:27;;;;;;;;;;;15.10;99.90;;;;;;2089834;28;716;-53
2021/10/06 07:12:46;;;;;;;;;;;15.10;99.90;;;;;;2088673;28;754;-53
2021/10/06 07:14:06;;;;;;;;;;;15.10;99.90;;;;;;2087632;28;769;-52
2021/10/06 07:15:25;;;;;;;;;;;15.10;99.90;;;;;;2085941;28;771;-52
2021/10/06 07:16:44;;;;;;;;;;;15.10;99.90;;;;;;2088989;28;772;-52
2021/10/06 07:18:03;;;;;;;;;;;15.10;99.90;;;;;;2089580;28;714;-51
2021/10/06 07:19:23;;;;;;;;;;;15.10;99.90;;;;;;2088908;28;1359;-53
2021/10/06 07:20:42;;;;;;;;;;;15.10;99.90;;;;;;2089538;28;713;-52
2021/10/06 07:22:01;;;;;;;;;;;15.10;99.90;;;;;;2089551;28;770;-52
2021/10/06 07:23:21;;;;;;;;;;;15.10;99.90;;;;;;2089954;28;748;-52
2021/10/06 07:24:40;;;;;;;;;;;15.10;99.90;;;;;;2089010;28;1980;-55
2021/10/06 07:25:59;;;;;;;;;;;15.10;99.90;;;;;;2089331;28;1165;-55
2021/10/06 07:27:19;;;;;;;;;;;15.10;99.90;;;;;;2089561;28;961;-52
2021/10/06 07:28:38;;;;;;;;;;;15.10;99.90;;;;;;2089617;28;1418;-52
2021/10/06 07:29:58;;;;;;;;;;;15.10;99.90;;;;;;2088993;28;736;-52
2021/10/06 07:31:17;;;;;;;;;;;15.10;99.90;;;;;;2087516;28;1045;-52
2021/10/06 07:32:36;;;;;;;;;;;15.10;99.90;;;;;;2082542;28;992;-51
2021/10/06 07:33:57;;;;;;;;;;;15.10;99.90;;;;;;2089599;28;739;-52
2021/10/06 07:35:16;;;;;;;;;;;15.10;99.90;;;;;;2089004;28;796;-53
2021/10/06 07:36:35;;;;;;;;;;;15.10;99.90;;;;;;2088675;28;713;-51
2021/10/06 07:37:54;;;;;;;;;;;15.10;99.90;;;;;;2089380;28;733;-54
2021/10/06 07:39:14;;;;;;;;;;;15.10;99.90;;;;;;2088857;28;1302;-51
2021/10/06 07:40:33;;;;;;;;;;;15.10;99.90;;;;;;2083850;28;1472;-53
2021/10/06 07:41:52;;;;;;;;;;;15.10;99.90;;;;;;2079197;28;810;-51
2021/10/06 07:43:11;;;;;;;;;;;15.10;99.90;;;;;;2081167;28;729;-53
2021/10/06 07:44:31;;;;;;;;;;;15.10;99.90;;;;;;2080164;28;1960;-52
2021/10/06 07:45:50;;;;;;;;;;;15.10;99.90;;;;;;2080647;28;713;-51
2021/10/06 07:47:10;;;;;;;;;;;15.10;99.90;;;;;;2080911;28;734;-52
2021/10/06 07:48:29;;;;;;;;;;;15.10;99.90;;;;;;2081331;28;956;-51
2021/10/06 07:49:48;;;;;;;;;;;15.10;99.90;;;;;;2081100;28;736;-53
2021/10/06 07:51:08;;;;;;;;;;;15.10;99.90;;;;;;2081370;28;763;-51
2021/10/06 07:52:27;;;;;;;;;;;15.10;99.90;;;;;;2080815;28;749;-53